sensor_id;sensor_type;location;lat;lon;timestamp;temperature;humidity
15394;DHT22;7795;47.986;11.868;2023-02-15T00:01:05;3.10;79.40
15394;DHT22;7795;47.986;11.868;2023-02-15T00:03:31;3.10;79.50
15394;DHT22;7795;47.986;11.868;2023-02-15T00:05:57;3.00;79.20
15394;DHT22;7795;47.986;11.868;2023-02-15T00:08:23;3.00;79.20
15394;DHT22;7795;47.986;11.868;2023-02-15T00:10:48;2.90;79.30
15394;DHT22;7795;47.986;11.868;2023-02-15T00:13:14;2.90;79.40
15394;DHT22;7795;47.986;11.868;2023-02-15T00:15:40;2.90;79.60
15394;DHT22;7795;47.986;11.868;2023-02-15T00:18:07;2.90;79.80
15394;DHT22;7795;47.986;11.868;2023-02-15T00:20:33;2.90;79.90
15394;DHT22;7795;47.986;11.868;2023-02-15T00:22:59;2.90;79.90
15394;DHT22;7795;47.986;11.868;2023-02-15T00:25:25;2.90;79.90
15394;DHT22;7795;47.986;11.868;2023-02-15T00:27:51;2.90;79.70
15394;DHT22;7795;47.986;11.868;2023-02-15T00:30:16;2.90;79.70
15394;DHT22;7795;47.986;11.868;2023-02-15T00:32:42;2.90;79.60
15394;DHT22;7795;47.986;11.868;2023-02-15T00:35:09;2.90;79.60
15394;DHT22;7795;47.986;11.868;2023-02-15T00:37:36;2.90;79.70
15394;DHT22;7795;47.986;11.868;2023-02-15T00:40:02;2.80;79.60
15394;DHT22;7795;47.986;11.868;2023-02-15T00:42:27;2.80;79.70
15394;DHT22;7795;47.986;11.868;2023-02-15T00:44:53;2.80;79.70
15394;DHT22;7795;47.986;11.868;2023-02-15T00:47:19;2.80;79.70
15394;DHT22;7795;47.986;11.868;2023-02-15T00:49:44;2.80;79.80
15394;DHT22;7795;47.986;11.868;2023-02-15T00:52:11;2.80;79.90
15394;DHT22;7795;47.986;11.868;2023-02-15T00:54:37;2.80;79.90
15394;DHT22;7795;47.986;11.868;2023-02-15T00:57:04;2.80;79.90
15394;DHT22;7795;47.986;11.868;2023-02-15T00:59:29;2.80;80.00
15394;DHT22;7795;47.986;11.868;2023-02-15T01:01:55;2.80;80.00
15394;DHT22;7795;47.986;11.868;2023-02-15T01:04:21;2.80;79.90
15394;DHT22;7795;47.986;11.868;2023-02-15T01:06:47;2.80;79.90
15394;DHT22;7795;47.986;11.868;2023-02-15T01:09:14;2.80;79.90
15394;DHT22;7795;47.986;11.868;2023-02-15T01:11:40;2.80;80.00
15394;DHT22;7795;47.986;11.868;2023-02-15T01:14:05;2.80;79.90
15394;DHT22;7795;47.986;11.868;2023-02-15T01:16:31;2.80;79.90
15394;DHT22;7795;47.986;11.868;2023-02-15T01:18:57;2.80;79.80
15394;DHT22;7795;47.986;11.868;2023-02-15T01:21:24;2.80;79.90
15394;DHT22;7795;47.986;11.868;2023-02-15T01:23:50;2.80;80.80
15394;DHT22;7795;47.986;11.868;2023-02-15T01:26:17;2.80;80.00
15394;DHT22;7795;47.986;11.868;2023-02-15T01:28:43;2.80;80.00
15394;DHT22;7795;47.986;11.868;2023-02-15T01:31:10;2.80;79.90
15394;DHT22;7795;47.986;11.868;2023-02-15T01:33:37;2.80;80.00
15394;DHT22;7795;47.986;11.868;2023-02-15T01:36:04;2.70;80.00
15394;DHT22;7795;47.986;11.868;2023-02-15T01:38:29;2.70;80.00
15394;DHT22;7795;47.986;11.868;2023-02-15T01:40:55;2.70;80.00
15394;DHT22;7795;47.986;11.868;2023-02-15T01:43:44;2.70;80.00
15394;DHT22;7795;47.986;11.868;2023-02-15T01:46:13;2.70;80.20
15394;DHT22;7795;47.986;11.868;2023-02-15T01:48:41;2.70;80.30
15394;DHT22;7795;47.986;11.868;2023-02-15T01:51:09;2.80;80.30
15394;DHT22;7795;47.986;11.868;2023-02-15T01:53:38;2.80;80.20
15394;DHT22;7795;47.986;11.868;2023-02-15T01:56:11;2.80;80.20
15394;DHT22;7795;47.986;11.868;2023-02-15T01:58:38;2.80;80.20
15394;DHT22;7795;47.986;11.868;2023-02-15T02:01:08;2.80;80.10
15394;DHT22;7795;47.986;11.868;2023-02-15T02:03:43;2.80;80.10
15394;DHT22;7795;47.986;11.868;2023-02-15T02:06:12;2.80;80.10
15394;DHT22;7795;47.986;11.868;2023-02-15T02:08:39;2.80;80.10
15394;DHT22;7795;47.986;11.868;2023-02-15T02:11:10;2.80;80.90
15394;DHT22;7795;47.986;11.868;2023-02-15T02:13:35;2.80;80.20
15394;DHT22;7795;47.986;11.868;2023-02-15T02:16:09;2.80;80.20
15394;DHT22;7795;47.986;11.868;2023-02-15T02:18:44;2.80;80.20
15394;DHT22;7795;47.986;11.868;2023-02-15T02:21:45;2.80;80.30
15394;DHT22;7795;47.986;11.868;2023-02-15T02:24:29;2.80;80.30
15394;DHT22;7795;47.986;11.868;2023-02-15T02:27:21;2.80;80.20
15394;DHT22;7795;47.986;11.868;2023-02-15T02:30:29;2.80;80.30
15394;DHT22;7795;47.986;11.868;2023-02-15T02:33:29;2.80;80.30
15394;DHT22;7795;47.986;11.868;2023-02-15T02:36:06;2.80;80.30
15394;DHT22;7795;47.986;11.868;2023-02-15T02:38:42;2.80;80.30
15394;DHT22;7795;47.986;11.868;2023-02-15T02:41:17;2.70;80.20
15394;DHT22;7795;47.986;11.868;2023-02-15T02:43:50;2.70;80.20
15394;DHT22;7795;47.986;11.868;2023-02-15T02:46:21;2.70;80.20
15394;DHT22;7795;47.986;11.868;2023-02-15T02:48:49;2.70;80.40
15394;DHT22;7795;47.986;11.868;2023-02-15T02:51:16;2.70;80.40
15394;DHT22;7795;47.986;11.868;2023-02-15T02:53:48;2.70;80.30
15394;DHT22;7795;47.986;11.868;2023-02-15T02:56:21;2.70;80.40
15394;DHT22;7795;47.986;11.868;2023-02-15T02:58:49;2.70;80.50
15394;DHT22;7795;47.986;11.868;2023-02-15T03:01:20;2.70;80.50
15394;DHT22;7795;47.986;11.868;2023-02-15T03:03:51;2.80;80.70
15394;DHT22;7795;47.986;11.868;2023-02-15T03:06:20;2.80;80.70
15394;DHT22;7795;47.986;11.868;2023-02-15T03:08:53;2.80;81.50
15394;DHT22;7795;47.986;11.868;2023-02-15T03:11:20;2.80;80.70
15394;DHT22;7795;47.986;11.868;2023-02-15T03:13:48;2.80;80.60
15394;DHT22;7795;47.986;11.868;2023-02-15T03:16:16;2.80;80.50
15394;DHT22;7795;47.986;11.868;2023-02-15T03:18:56;2.80;80.50
15394;DHT22;7795;47.986;11.868;2023-02-15T03:21:30;2.80;80.50
15394;DHT22;7795;47.986;11.868;2023-02-15T03:24:01;2.80;80.50
15394;DHT22;7795;47.986;11.868;2023-02-15T03:26:30;2.90;80.60
15394;DHT22;7795;47.986;11.868;2023-02-15T03:28:58;2.90;80.60
15394;DHT22;7795;47.986;11.868;2023-02-15T03:31:28;2.90;80.60
15394;DHT22;7795;47.986;11.868;2023-02-15T03:33:59;2.90;80.60
15394;DHT22;7795;47.986;11.868;2023-02-15T03:36:31;2.90;80.60
15394;DHT22;7795;47.986;11.868;2023-02-15T03:39:02;2.80;80.50
15394;DHT22;7795;47.986;11.868;2023-02-15T03:41:34;2.80;80.50
15394;DHT22;7795;47.986;11.868;2023-02-15T03:44:06;2.90;80.60
15394;DHT22;7795;47.986;11.868;2023-02-15T03:46:37;2.90;80.60
15394;DHT22;7795;47.986;11.868;2023-02-15T03:49:09;2.90;80.60
15394;DHT22;7795;47.986;11.868;2023-02-15T03:51:38;2.90;80.70
15394;DHT22;7795;47.986;11.868;2023-02-15T03:54:08;2.90;80.70
15394;DHT22;7795;47.986;11.868;2023-02-15T03:56:36;2.90;80.70
15394;DHT22;7795;47.986;11.868;2023-02-15T03:59:03;2.90;80.70
15394;DHT22;7795;47.986;11.868;2023-02-15T04:01:55;2.90;80.70
15394;DHT22;7795;47.986;11.868;2023-02-15T04:04:31;2.90;80.70
15394;DHT22;7795;47.986;11.868;2023-02-15T04:06:57;2.90;80.70
15394;DHT22;7795;47.986;11.868;2023-02-15T04:09:23;2.90;80.60
15394;DHT22;7795;47.986;11.868;2023-02-15T04:12:07;2.90;80.60
15394;DHT22;7795;47.986;11.868;2023-02-15T04:14:33;2.90;80.60
15394;DHT22;7795;47.986;11.868;2023-02-15T04:17:17;2.90;80.40
15394;DHT22;7795;47.986;11.868;2023-02-15T04:19:44;2.90;80.30
15394;DHT22;7795;47.986;11.868;2023-02-15T04:22:29;2.90;80.40
15394;DHT22;7795;47.986;11.868;2023-02-15T04:25:13;2.80;80.40
15394;DHT22;7795;47.986;11.868;2023-02-15T04:27:44;2.80;80.50
15394;DHT22;7795;47.986;11.868;2023-02-15T04:30:12;2.80;80.40
15394;DHT22;7795;47.986;11.868;2023-02-15T04:32:38;2.80;80.30
15394;DHT22;7795;47.986;11.868;2023-02-15T04:35:06;2.70;80.20
15394;DHT22;7795;47.986;11.868;2023-02-15T04:37:32;2.70;80.30
15394;DHT22;7795;47.986;11.868;2023-02-15T04:39:58;2.70;80.30
15394;DHT22;7795;47.986;11.868;2023-02-15T04:42:24;2.70;80.30
15394;DHT22;7795;47.986;11.868;2023-02-15T04:44:50;2.70;80.30
15394;DHT22;7795;47.986;11.868;2023-02-15T04:47:16;2.60;80.30
15394;DHT22;7795;47.986;11.868;2023-02-15T04:49:42;2.60;80.50
15394;DHT22;7795;47.986;11.868;2023-02-15T04:52:09;2.60;80.60
15394;DHT22;7795;47.986;11.868;2023-02-15T04:54:35;2.60;80.50
15394;DHT22;7795;47.986;11.868;2023-02-15T04:57:01;2.60;80.50
15394;DHT22;7795;47.986;11.868;2023-02-15T04:59:27;2.60;80.60
15394;DHT22;7795;47.986;11.868;2023-02-15T05:01:52;2.60;80.60
15394;DHT22;7795;47.986;11.868;2023-02-15T05:04:18;2.50;80.50
15394;DHT22;7795;47.986;11.868;2023-02-15T05:06:44;2.60;81.20
15394;DHT22;7795;47.986;11.868;2023-02-15T05:09:12;2.50;80.40
15394;DHT22;7795;47.986;11.868;2023-02-15T05:11:38;2.50;80.40
15394;DHT22;7795;47.986;11.868;2023-02-15T05:14:04;2.50;80.30
15394;DHT22;7795;47.986;11.868;2023-02-15T05:16:30;2.50;80.30
15394;DHT22;7795;47.986;11.868;2023-02-15T05:18:56;2.50;80.40
15394;DHT22;7795;47.986;11.868;2023-02-15T05:21:22;2.50;80.40
15394;DHT22;7795;47.986;11.868;2023-02-15T05:23:47;2.50;80.50
15394;DHT22;7795;47.986;11.868;2023-02-15T05:26:17;2.40;80.40
15394;DHT22;7795;47.986;11.868;2023-02-15T05:29:03;2.50;80.50
15394;DHT22;7795;47.986;11.868;2023-02-15T05:31:28;2.40;80.40
15394;DHT22;7795;47.986;11.868;2023-02-15T05:33:55;2.40;80.30
15394;DHT22;7795;47.986;11.868;2023-02-15T05:36:21;2.40;80.30
15394;DHT22;7795;47.986;11.868;2023-02-15T05:38:47;2.40;80.30
15394;DHT22;7795;47.986;11.868;2023-02-15T05:41:12;2.40;80.30
15394;DHT22;7795;47.986;11.868;2023-02-15T05:43:40;2.40;80.30
15394;DHT22;7795;47.986;11.868;2023-02-15T05:46:05;2.40;80.30
15394;DHT22;7795;47.986;11.868;2023-02-15T05:48:31;2.40;80.30
15394;DHT22;7795;47.986;11.868;2023-02-15T05:50:58;2.40;80.30
15394;DHT22;7795;47.986;11.868;2023-02-15T05:53:24;2.40;80.40
15394;DHT22;7795;47.986;11.868;2023-02-15T05:55:50;2.40;80.30
15394;DHT22;7795;47.986;11.868;2023-02-15T05:58:16;2.40;80.30
15394;DHT22;7795;47.986;11.868;2023-02-15T06:00:43;2.40;80.40
15394;DHT22;7795;47.986;11.868;2023-02-15T06:03:09;2.30;80.30
15394;DHT22;7795;47.986;11.868;2023-02-15T06:05:34;2.40;81.20
15394;DHT22;7795;47.986;11.868;2023-02-15T06:08:00;2.40;80.40
15394;DHT22;7795;47.986;11.868;2023-02-15T06:10:26;2.40;80.30
15394;DHT22;7795;47.986;11.868;2023-02-15T06:12:52;2.40;80.30
15394;DHT22;7795;47.986;11.868;2023-02-15T06:15:17;2.30;80.20
15394;DHT22;7795;47.986;11.868;2023-02-15T06:17:44;2.30;80.10
15394;DHT22;7795;47.986;11.868;2023-02-15T06:20:11;2.30;80.20
15394;DHT22;7795;47.986;11.868;2023-02-15T06:22:37;2.30;81.00
15394;DHT22;7795;47.986;11.868;2023-02-15T06:25:03;2.30;80.30
15394;DHT22;7795;47.986;11.868;2023-02-15T06:27:29;2.30;80.50
15394;DHT22;7795;47.986;11.868;2023-02-15T06:29:55;2.30;80.50
15394;DHT22;7795;47.986;11.868;2023-02-15T06:32:20;2.30;80.50
15394;DHT22;7795;47.986;11.868;2023-02-15T06:34:48;2.30;80.50
15394;DHT22;7795;47.986;11.868;2023-02-15T06:37:16;2.30;80.50
15394;DHT22;7795;47.986;11.868;2023-02-15T06:39:42;2.20;80.40
15394;DHT22;7795;47.986;11.868;2023-02-15T06:42:09;2.20;80.50
15394;DHT22;7795;47.986;11.868;2023-02-15T06:44:35;2.20;80.60
15394;DHT22;7795;47.986;11.868;2023-02-15T06:47:00;2.30;80.60
15394;DHT22;7795;47.986;11.868;2023-02-15T06:49:26;2.20;80.50
15394;DHT22;7795;47.986;11.868;2023-02-15T06:51:53;2.20;80.40
15394;DHT22;7795;47.986;11.868;2023-02-15T06:54:19;2.20;80.40
15394;DHT22;7795;47.986;11.868;2023-02-15T06:56:45;2.20;80.40
15394;DHT22;7795;47.986;11.868;2023-02-15T06:59:11;2.20;80.40
15394;DHT22;7795;47.986;11.868;2023-02-15T07:01:36;2.20;80.30
15394;DHT22;7795;47.986;11.868;2023-02-15T07:04:03;2.20;80.40
15394;DHT22;7795;47.986;11.868;2023-02-15T07:06:31;2.20;80.50
15394;DHT22;7795;47.986;11.868;2023-02-15T07:08:58;2.20;80.50
15394;DHT22;7795;47.986;11.868;2023-02-15T07:11:23;2.20;80.50
15394;DHT22;7795;47.986;11.868;2023-02-15T07:14:08;2.20;80.50
15394;DHT22;7795;47.986;11.868;2023-02-15T07:16:33;2.20;80.50
15394;DHT22;7795;47.986;11.868;2023-02-15T07:18:59;2.20;80.60
15394;DHT22;7795;47.986;11.868;2023-02-15T07:21:25;2.20;80.60
15394;DHT22;7795;47.986;11.868;2023-02-15T07:23:51;2.20;80.60
15394;DHT22;7795;47.986;11.868;2023-02-15T07:26:18;2.20;80.60
15394;DHT22;7795;47.986;11.868;2023-02-15T07:28:43;2.20;80.70
15394;DHT22;7795;47.986;11.868;2023-02-15T07:31:09;2.30;80.70
15394;DHT22;7795;47.986;11.868;2023-02-15T07:33:35;2.30;80.60
15394;DHT22;7795;47.986;11.868;2023-02-15T07:36:02;2.30;80.60
15394;DHT22;7795;47.986;11.868;2023-02-15T07:38:31;2.30;80.60
15394;DHT22;7795;47.986;11.868;2023-02-15T07:40:58;2.30;80.50
15394;DHT22;7795;47.986;11.868;2023-02-15T07:43:25;2.30;80.50
15394;DHT22;7795;47.986;11.868;2023-02-15T07:45:51;2.30;80.50
15394;DHT22;7795;47.986;11.868;2023-02-15T07:48:17;2.30;80.50
15394;DHT22;7795;47.986;11.868;2023-02-15T07:50:43;2.30;80.60
15394;DHT22;7795;47.986;11.868;2023-02-15T07:53:08;2.30;80.60
15394;DHT22;7795;47.986;11.868;2023-02-15T07:55:34;2.40;80.80
15394;DHT22;7795;47.986;11.868;2023-02-15T07:58:00;2.40;80.90
15394;DHT22;7795;47.986;11.868;2023-02-15T08:00:27;2.40;80.90
15394;DHT22;7795;47.986;11.868;2023-02-15T08:02:56;2.40;80.90
15394;DHT22;7795;47.986;11.868;2023-02-15T08:05:40;2.50;81.00
15394;DHT22;7795;47.986;11.868;2023-02-15T08:08:06;2.50;80.90
15394;DHT22;7795;47.986;11.868;2023-02-15T08:10:32;2.50;80.90
15394;DHT22;7795;47.986;11.868;2023-02-15T08:13:17;2.60;80.90
15394;DHT22;7795;47.986;11.868;2023-02-15T08:15:49;2.60;80.80
15394;DHT22;7795;47.986;11.868;2023-02-15T08:18:15;2.70;80.80
15394;DHT22;7795;47.986;11.868;2023-02-15T08:20:41;2.70;80.70
15394;DHT22;7795;47.986;11.868;2023-02-15T08:23:06;2.70;80.60
15394;DHT22;7795;47.986;11.868;2023-02-15T08:25:32;2.80;80.60
15394;DHT22;7795;47.986;11.868;2023-02-15T08:27:58;2.80;80.60
15394;DHT22;7795;47.986;11.868;2023-02-15T08:30:24;2.80;80.50
15394;DHT22;7795;47.986;11.868;2023-02-15T08:32:51;2.90;80.30
15394;DHT22;7795;47.986;11.868;2023-02-15T08:35:16;2.80;80.30
15394;DHT22;7795;47.986;11.868;2023-02-15T08:37:42;2.90;80.40
15394;DHT22;7795;47.986;11.868;2023-02-15T08:40:09;2.90;80.50
15394;DHT22;7795;47.986;11.868;2023-02-15T08:42:35;2.90;80.50
15394;DHT22;7795;47.986;11.868;2023-02-15T08:45:01;3.00;80.60
15394;DHT22;7795;47.986;11.868;2023-02-15T08:47:27;3.00;80.50
15394;DHT22;7795;47.986;11.868;2023-02-15T08:49:54;3.10;81.20
15394;DHT22;7795;47.986;11.868;2023-02-15T08:52:21;3.10;80.30
15394;DHT22;7795;47.986;11.868;2023-02-15T08:54:47;3.10;80.40
15394;DHT22;7795;47.986;11.868;2023-02-15T08:57:12;3.20;80.50
15394;DHT22;7795;47.986;11.868;2023-02-15T08:59:38;3.20;80.50
15394;DHT22;7795;47.986;11.868;2023-02-15T09:02:04;3.20;80.50
15394;DHT22;7795;47.986;11.868;2023-02-15T09:04:30;3.30;80.50
15394;DHT22;7795;47.986;11.868;2023-02-15T09:06:58;3.30;80.50
15394;DHT22;7795;47.986;11.868;2023-02-15T09:09:24;3.30;80.40
15394;DHT22;7795;47.986;11.868;2023-02-15T09:11:50;3.30;80.30
15394;DHT22;7795;47.986;11.868;2023-02-15T09:14:17;3.40;80.40
15394;DHT22;7795;47.986;11.868;2023-02-15T09:16:45;3.40;80.50
15394;DHT22;7795;47.986;11.868;2023-02-15T09:19:14;3.50;81.40
15394;DHT22;7795;47.986;11.868;2023-02-15T09:21:40;3.50;80.70
15394;DHT22;7795;47.986;11.868;2023-02-15T09:24:09;3.60;80.70
15394;DHT22;7795;47.986;11.868;2023-02-15T09:26:37;3.70;80.70
15394;DHT22;7795;47.986;11.868;2023-02-15T09:29:05;3.70;80.60
15394;DHT22;7795;47.986;11.868;2023-02-15T09:31:33;3.80;80.50
15394;DHT22;7795;47.986;11.868;2023-02-15T09:34:00;3.80;80.50
15394;DHT22;7795;47.986;11.868;2023-02-15T09:36:28;3.90;80.50
15394;DHT22;7795;47.986;11.868;2023-02-15T09:38:56;3.90;80.40
15394;DHT22;7795;47.986;11.868;2023-02-15T09:44:27;4.00;80.30
15394;DHT22;7795;47.986;11.868;2023-02-15T09:47:20;4.10;80.30
15394;DHT22;7795;47.986;11.868;2023-02-15T09:49:55;4.10;80.30
15394;DHT22;7795;47.986;11.868;2023-02-15T09:52:37;4.20;80.20
15394;DHT22;7795;47.986;11.868;2023-02-15T09:55:24;4.30;80.20
15394;DHT22;7795;47.986;11.868;2023-02-15T09:58:03;4.30;80.00
15394;DHT22;7795;47.986;11.868;2023-02-15T10:00:38;4.40;80.00
15394;DHT22;7795;47.986;11.868;2023-02-15T10:03:34;4.40;79.80
15394;DHT22;7795;47.986;11.868;2023-02-15T10:06:16;4.40;79.80
15394;DHT22;7795;47.986;11.868;2023-02-15T10:09:13;4.50;79.70
15394;DHT22;7795;47.986;11.868;2023-02-15T10:11:56;4.50;79.70
15394;DHT22;7795;47.986;11.868;2023-02-15T10:14:58;4.60;80.00
15394;DHT22;7795;47.986;11.868;2023-02-15T10:17:35;4.70;80.90
15394;DHT22;7795;47.986;11.868;2023-02-15T10:20:13;4.70;80.20
15394;DHT22;7795;47.986;11.868;2023-02-15T10:22:57;4.80;80.20
15394;DHT22;7795;47.986;11.868;2023-02-15T10:25:39;4.90;80.20
15394;DHT22;7795;47.986;11.868;2023-02-15T10:28:11;5.00;80.10
15394;DHT22;7795;47.986;11.868;2023-02-15T10:30:46;5.10;80.00
15394;DHT22;7795;47.986;11.868;2023-02-15T10:33:20;5.10;79.80
15394;DHT22;7795;47.986;11.868;2023-02-15T10:35:55;5.10;79.70
15394;DHT22;7795;47.986;11.868;2023-02-15T10:38:28;5.20;79.60
15394;DHT22;7795;47.986;11.868;2023-02-15T10:41:06;5.30;79.50
15394;DHT22;7795;47.986;11.868;2023-02-15T10:43:49;5.30;79.40
15394;DHT22;7795;47.986;11.868;2023-02-15T10:46:30;5.40;79.20
15394;DHT22;7795;47.986;11.868;2023-02-15T10:49:18;5.40;79.10
15394;DHT22;7795;47.986;11.868;2023-02-15T10:51:59;5.50;79.90
15394;DHT22;7795;47.986;11.868;2023-02-15T10:54:34;5.50;79.10
15394;DHT22;7795;47.986;11.868;2023-02-15T10:57:04;5.50;79.10
15394;DHT22;7795;47.986;11.868;2023-02-15T10:59:49;5.60;79.30
15394;DHT22;7795;47.986;11.868;2023-02-15T11:02:25;5.60;79.40
15394;DHT22;7795;47.986;11.868;2023-02-15T11:05:00;5.70;79.50
15394;DHT22;7795;47.986;11.868;2023-02-15T11:07:33;5.70;79.50
15394;DHT22;7795;47.986;11.868;2023-02-15T11:10:05;5.80;79.60
15394;DHT22;7795;47.986;11.868;2023-02-15T11:12:33;5.80;79.40
15394;DHT22;7795;47.986;11.868;2023-02-15T11:15:04;5.90;79.50
15394;DHT22;7795;47.986;11.868;2023-02-15T11:17:43;6.00;80.20
15394;DHT22;7795;47.986;11.868;2023-02-15T11:20:17;6.00;80.20
15394;DHT22;7795;47.986;11.868;2023-02-15T11:22:48;6.10;79.60
15394;DHT22;7795;47.986;11.868;2023-02-15T11:25:18;6.10;79.60
15394;DHT22;7795;47.986;11.868;2023-02-15T11:27:46;6.20;79.70
15394;DHT22;7795;47.986;11.868;2023-02-15T11:32:44;6.30;79.70
15394;DHT22;7795;47.986;11.868;2023-02-15T11:35:20;6.40;79.70
15394;DHT22;7795;47.986;11.868;2023-02-15T11:37:50;6.50;79.60
15394;DHT22;7795;47.986;11.868;2023-02-15T11:40:21;6.60;79.70
15394;DHT22;7795;47.986;11.868;2023-02-15T11:42:51;6.60;79.70
15394;DHT22;7795;47.986;11.868;2023-02-15T11:45:25;6.70;79.70
15394;DHT22;7795;47.986;11.868;2023-02-15T11:47:53;6.80;79.80
15394;DHT22;7795;47.986;11.868;2023-02-15T11:50:22;6.90;79.80
15394;DHT22;7795;47.986;11.868;2023-02-15T11:52:48;7.00;79.70
15394;DHT22;7795;47.986;11.868;2023-02-15T11:55:19;7.00;79.70
15394;DHT22;7795;47.986;11.868;2023-02-15T11:57:50;7.10;79.70
15394;DHT22;7795;47.986;11.868;2023-02-15T12:00:27;7.20;79.60
15394;DHT22;7795;47.986;11.868;2023-02-15T12:02:58;7.30;79.70
15394;DHT22;7795;47.986;11.868;2023-02-15T12:05:25;7.40;79.70
15394;DHT22;7795;47.986;11.868;2023-02-15T12:07:54;7.50;79.70
15394;DHT22;7795;47.986;11.868;2023-02-15T12:10:24;7.50;80.50
15394;DHT22;7795;47.986;11.868;2023-02-15T12:13:09;7.60;79.90
15394;DHT22;7795;47.986;11.868;2023-02-15T12:15:36;7.70;79.70
15394;DHT22;7795;47.986;11.868;2023-02-15T12:18:03;7.80;79.70
15394;DHT22;7795;47.986;11.868;2023-02-15T12:20:33;7.90;79.70
15394;DHT22;7795;47.986;11.868;2023-02-15T12:23:01;8.00;79.60
15394;DHT22;7795;47.986;11.868;2023-02-15T12:25:35;8.10;79.60
15394;DHT22;7795;47.986;11.868;2023-02-15T12:28:02;8.20;79.50
15394;DHT22;7795;47.986;11.868;2023-02-15T12:30:30;8.30;79.40
15394;DHT22;7795;47.986;11.868;2023-02-15T12:32:59;8.40;79.20
15394;DHT22;7795;47.986;11.868;2023-02-15T12:35:33;8.50;79.70
15394;DHT22;7795;47.986;11.868;2023-02-15T12:38:03;8.50;78.70
15394;DHT22;7795;47.986;11.868;2023-02-15T12:40:29;8.60;78.50
15394;DHT22;7795;47.986;11.868;2023-02-15T12:42:55;8.70;78.40
15394;DHT22;7795;47.986;11.868;2023-02-15T12:45:24;8.80;78.30
15394;DHT22;7795;47.986;11.868;2023-02-15T12:48:09;8.90;78.20
15394;DHT22;7795;47.986;11.868;2023-02-15T12:50:37;9.00;77.60
15394;DHT22;7795;47.986;11.868;2023-02-15T12:53:07;9.00;77.80
15394;DHT22;7795;47.986;11.868;2023-02-15T12:55:33;9.10;77.60
15394;DHT22;7795;47.986;11.868;2023-02-15T12:58:07;9.20;77.60
15394;DHT22;7795;47.986;11.868;2023-02-15T13:00:33;9.30;77.20
15394;DHT22;7795;47.986;11.868;2023-02-15T13:03:00;9.40;77.40
15394;DHT22;7795;47.986;11.868;2023-02-15T13:05:31;9.40;77.10
15394;DHT22;7795;47.986;11.868;2023-02-15T13:08:01;9.50;76.90
15394;DHT22;7795;47.986;11.868;2023-02-15T13:10:29;9.60;77.00
15394;DHT22;7795;47.986;11.868;2023-02-15T13:12:56;9.60;77.00
15394;DHT22;7795;47.986;11.868;2023-02-15T13:15:26;9.70;77.10
15394;DHT22;7795;47.986;11.868;2023-02-15T13:17:55;9.70;76.80
15394;DHT22;7795;47.986;11.868;2023-02-15T13:20:22;9.80;76.70
15394;DHT22;7795;47.986;11.868;2023-02-15T13:22:51;9.90;76.60
15394;DHT22;7795;47.986;11.868;2023-02-15T13:25:22;10.00;76.50
15394;DHT22;7795;47.986;11.868;2023-02-15T13:27:52;10.10;76.40
15394;DHT22;7795;47.986;11.868;2023-02-15T13:30:23;10.10;76.20
15394;DHT22;7795;47.986;11.868;2023-02-15T13:32:54;10.20;76.80
15394;DHT22;7795;47.986;11.868;2023-02-15T13:35:22;10.20;75.90
15394;DHT22;7795;47.986;11.868;2023-02-15T13:38:15;10.30;75.80
15394;DHT22;7795;47.986;11.868;2023-02-15T13:40:48;10.40;75.10
15394;DHT22;7795;47.986;11.868;2023-02-15T13:43:24;10.40;75.60
15394;DHT22;7795;47.986;11.868;2023-02-15T13:46:01;10.50;75.40
15394;DHT22;7795;47.986;11.868;2023-02-15T13:48:37;10.60;75.30
15394;DHT22;7795;47.986;11.868;2023-02-15T13:51:12;10.60;75.20
15394;DHT22;7795;47.986;11.868;2023-02-15T13:56:53;10.80;74.60
15394;DHT22;7795;47.986;11.868;2023-02-15T13:59:36;10.80;74.80
15394;DHT22;7795;47.986;11.868;2023-02-15T14:02:36;10.90;74.70
15394;DHT22;7795;47.986;11.868;2023-02-15T14:05:29;10.90;74.30
15394;DHT22;7795;47.986;11.868;2023-02-15T14:08:04;11.00;74.30
15394;DHT22;7795;47.986;11.868;2023-02-15T14:10:43;11.00;74.60
15394;DHT22;7795;47.986;11.868;2023-02-15T14:13:32;11.10;74.40
15394;DHT22;7795;47.986;11.868;2023-02-15T14:16:04;11.10;74.70
15394;DHT22;7795;47.986;11.868;2023-02-15T14:18:36;11.20;74.40
15394;DHT22;7795;47.986;11.868;2023-02-15T14:21:10;11.20;74.70
15394;DHT22;7795;47.986;11.868;2023-02-15T14:23:48;11.30;73.80
15394;DHT22;7795;47.986;11.868;2023-02-15T14:26:18;11.30;73.70
15394;DHT22;7795;47.986;11.868;2023-02-15T14:28:54;11.30;73.70
15394;DHT22;7795;47.986;11.868;2023-02-15T14:31:29;11.40;73.30
15394;DHT22;7795;47.986;11.868;2023-02-15T14:33:57;11.40;73.30
15394;DHT22;7795;47.986;11.868;2023-02-15T14:36:24;11.40;73.40
15394;DHT22;7795;47.986;11.868;2023-02-15T14:38:59;11.40;73.30
15394;DHT22;7795;47.986;11.868;2023-02-15T14:41:31;11.50;73.00
15394;DHT22;7795;47.986;11.868;2023-02-15T14:44:12;11.50;73.10
15394;DHT22;7795;47.986;11.868;2023-02-15T14:46:44;11.50;72.70
15394;DHT22;7795;47.986;11.868;2023-02-15T14:49:12;11.50;72.90
15394;DHT22;7795;47.986;11.868;2023-02-15T14:51:56;11.50;73.10
15394;DHT22;7795;47.986;11.868;2023-02-15T14:54:55;11.60;72.30
15394;DHT22;7795;47.986;11.868;2023-02-15T14:57:32;11.60;72.20
15394;DHT22;7795;47.986;11.868;2023-02-15T15:02:45;11.60;72.50
15394;DHT22;7795;47.986;11.868;2023-02-15T15:05:17;11.60;72.50
15394;DHT22;7795;47.986;11.868;2023-02-15T15:07:46;11.60;72.30
15394;DHT22;7795;47.986;11.868;2023-02-15T15:10:35;11.60;72.40
15394;DHT22;7795;47.986;11.868;2023-02-15T15:13:38;11.60;71.80
15394;DHT22;7795;47.986;11.868;2023-02-15T15:19:09;11.60;71.80
15394;DHT22;7795;47.986;11.868;2023-02-15T15:21:52;11.60;72.20
15394;DHT22;7795;47.986;11.868;2023-02-15T15:24:46;11.60;71.80
15394;DHT22;7795;47.986;11.868;2023-02-15T15:27:44;11.60;71.80
15394;DHT22;7795;47.986;11.868;2023-02-15T15:30:49;11.60;71.70
15394;DHT22;7795;47.986;11.868;2023-02-15T15:33:28;11.60;71.70
15394;DHT22;7795;47.986;11.868;2023-02-15T15:36:17;11.60;71.80
15394;DHT22;7795;47.986;11.868;2023-02-15T15:38:55;11.60;71.70
15394;DHT22;7795;47.986;11.868;2023-02-15T15:41:39;11.60;71.80
15394;DHT22;7795;47.986;11.868;2023-02-15T15:44:24;11.50;71.80
15394;DHT22;7795;47.986;11.868;2023-02-15T15:47:13;11.50;71.70
15394;DHT22;7795;47.986;11.868;2023-02-15T15:49:43;11.50;71.50
15394;DHT22;7795;47.986;11.868;2023-02-15T15:52:13;11.50;72.00
15394;DHT22;7795;47.986;11.868;2023-02-15T15:54:40;11.40;71.70
15394;DHT22;7795;47.986;11.868;2023-02-15T15:57:14;11.40;71.80
15394;DHT22;7795;47.986;11.868;2023-02-15T15:59:44;11.40;71.70
15394;DHT22;7795;47.986;11.868;2023-02-15T16:02:13;11.40;71.80
15394;DHT22;7795;47.986;11.868;2023-02-15T16:04:41;11.30;71.70
15394;DHT22;7795;47.986;11.868;2023-02-15T16:07:23;11.30;71.80
15394;DHT22;7795;47.986;11.868;2023-02-15T16:09:58;11.30;71.60
15394;DHT22;7795;47.986;11.868;2023-02-15T16:12:25;11.20;71.70
15394;DHT22;7795;47.986;11.868;2023-02-15T16:14:52;11.10;71.90
15394;DHT22;7795;47.986;11.868;2023-02-15T16:17:23;11.10;72.00
15394;DHT22;7795;47.986;11.868;2023-02-15T16:19:50;11.00;71.90
15394;DHT22;7795;47.986;11.868;2023-02-15T16:22:19;10.90;71.80